sensor_id;sensor_type;location;lat;lon;timestamp;P1;durP1;ratioP1;P2;durP2;ratioP2
14235;SDS011;7202;50.718;7.072;2022-07-01T00:00:01;2.30;;;2.10;;
14235;SDS011;7202;50.718;7.072;2022-07-01T00:02:39;2.15;;;1.80;;
14235;SDS011;7202;50.718;7.072;2022-07-01T00:05:08;2.38;;;1.80;;
14235;SDS011;7202;50.718;7.072;2022-07-01T00:07:45;2.83;;;1.85;;
14235;SDS011;7202;50.718;7.072;2022-07-01T00:10:16;1.90;;;1.75;;
14235;SDS011;7202;50.718;7.072;2022-07-01T00:12:44;3.63;;;2.00;;
14235;SDS011;7202;50.718;7.072;2022-07-01T00:15:14;2.05;;;1.60;;
14235;SDS011;7202;50.718;7.072;2022-07-01T00:17:42;2.30;;;1.77;;
14235;SDS011;7202;50.718;7.072;2022-07-01T00:20:11;4.53;;;1.90;;
14235;SDS011;7202;50.718;7.072;2022-07-01T00:22:41;2.83;;;1.88;;
14235;SDS011;7202;50.718;7.072;2022-07-01T00:25:10;3.63;;;1.83;;
14235;SDS011;7202;50.718;7.072;2022-07-01T00:27:40;3.13;;;2.00;;
14235;SDS011;7202;50.718;7.072;2022-07-01T00:30:09;2.30;;;1.83;;
14235;SDS011;7202;50.718;7.072;2022-07-01T00:32:38;4.93;;;2.05;;
14235;SDS011;7202;50.718;7.072;2022-07-01T00:35:07;5.28;;;3.33;;
14235;SDS011;7202;50.718;7.072;2022-07-01T00:37:38;3.60;;;2.65;;
14235;SDS011;7202;50.718;7.072;2022-07-01T00:40:07;2.42;;;2.10;;
14235;SDS011;7202;50.718;7.072;2022-07-01T00:42:41;3.92;;;2.20;;
14235;SDS011;7202;50.718;7.072;2022-07-01T00:45:11;2.40;;;2.00;;
14235;SDS011;7202;50.718;7.072;2022-07-01T00:47:40;3.40;;;2.30;;
14235;SDS011;7202;50.718;7.072;2022-07-01T00:50:10;6.18;;;2.25;;
14235;SDS011;7202;50.718;7.072;2022-07-01T00:52:39;2.38;;;2.17;;
14235;SDS011;7202;50.718;7.072;2022-07-01T00:55:09;8.57;;;2.40;;
14235;SDS011;7202;50.718;7.072;2022-07-01T00:57:41;6.05;;;2.25;;
14235;SDS011;7202;50.718;7.072;2022-07-01T01:00:11;3.03;;;1.83;;
14235;SDS011;7202;50.718;7.072;2022-07-01T01:02:42;2.40;;;2.20;;
14235;SDS011;7202;50.718;7.072;2022-07-01T01:05:11;2.35;;;2.13;;
14235;SDS011;7202;50.718;7.072;2022-07-01T01:07:40;5.50;;;2.50;;
14235;SDS011;7202;50.718;7.072;2022-07-01T01:10:09;2.42;;;2.00;;
14235;SDS011;7202;50.718;7.072;2022-07-01T01:12:38;3.10;;;2.13;;
14235;SDS011;7202;50.718;7.072;2022-07-01T01:15:09;2.83;;;2.25;;
14235;SDS011;7202;50.718;7.072;2022-07-01T01:17:37;2.20;;;2.00;;
14235;SDS011;7202;50.718;7.072;2022-07-01T01:20:06;5.68;;;3.10;;
14235;SDS011;7202;50.718;7.072;2022-07-01T01:22:37;3.67;;;2.83;;
14235;SDS011;7202;50.718;7.072;2022-07-01T01:25:07;3.85;;;2.83;;
14235;SDS011;7202;50.718;7.072;2022-07-01T01:27:35;4.47;;;2.70;;
14235;SDS011;7202;50.718;7.072;2022-07-01T01:30:05;3.97;;;2.45;;
14235;SDS011;7202;50.718;7.072;2022-07-01T01:32:35;4.10;;;2.70;;
14235;SDS011;7202;50.718;7.072;2022-07-01T01:35:04;3.13;;;2.33;;
14235;SDS011;7202;50.718;7.072;2022-07-01T01:37:34;2.72;;;2.53;;
14235;SDS011;7202;50.718;7.072;2022-07-01T01:40:05;2.33;;;2.10;;
14235;SDS011;7202;50.718;7.072;2022-07-01T01:42:34;3.65;;;2.28;;
14235;SDS011;7202;50.718;7.072;2022-07-01T01:45:03;2.78;;;2.08;;
14235;SDS011;7202;50.718;7.072;2022-07-01T01:47:32;4.80;;;2.10;;
14235;SDS011;7202;50.718;7.072;2022-07-01T01:50:01;2.10;;;1.92;;
14235;SDS011;7202;50.718;7.072;2022-07-01T01:52:30;2.88;;;2.17;;
14235;SDS011;7202;50.718;7.072;2022-07-01T01:54:59;3.28;;;2.30;;
14235;SDS011;7202;50.718;7.072;2022-07-01T01:57:29;4.53;;;2.33;;
14235;SDS011;7202;50.718;7.072;2022-07-01T01:59:57;2.65;;;2.17;;
14235;SDS011;7202;50.718;7.072;2022-07-01T02:02:26;3.58;;;1.98;;
14235;SDS011;7202;50.718;7.072;2022-07-01T02:04:55;3.88;;;2.30;;
14235;SDS011;7202;50.718;7.072;2022-07-01T02:07:23;2.45;;;1.98;;
14235;SDS011;7202;50.718;7.072;2022-07-01T02:09:52;4.32;;;2.13;;
14235;SDS011;7202;50.718;7.072;2022-07-01T02:12:21;3.83;;;2.20;;
14235;SDS011;7202;50.718;7.072;2022-07-01T02:14:50;2.05;;;1.83;;
14235;SDS011;7202;50.718;7.072;2022-07-01T02:17:19;3.13;;;1.80;;
14235;SDS011;7202;50.718;7.072;2022-07-01T02:19:48;1.42;;;1.33;;
14235;SDS011;7202;50.718;7.072;2022-07-01T02:22:16;2.35;;;1.52;;
14235;SDS011;7202;50.718;7.072;2022-07-01T02:24:45;2.25;;;1.80;;
14235;SDS011;7202;50.718;7.072;2022-07-01T02:27:13;2.92;;;1.75;;
14235;SDS011;7202;50.718;7.072;2022-07-01T02:29:42;3.42;;;1.60;;
14235;SDS011;7202;50.718;7.072;2022-07-01T02:32:12;4.18;;;1.65;;
14235;SDS011;7202;50.718;7.072;2022-07-01T02:34:40;2.70;;;1.70;;
14235;SDS011;7202;50.718;7.072;2022-07-01T02:37:09;3.17;;;1.60;;
14235;SDS011;7202;50.718;7.072;2022-07-01T02:39:38;3.92;;;1.75;;
14235;SDS011;7202;50.718;7.072;2022-07-01T02:42:07;2.13;;;1.73;;
14235;SDS011;7202;50.718;7.072;2022-07-01T02:44:53;2.60;;;1.70;;
14235;SDS011;7202;50.718;7.072;2022-07-01T02:47:23;1.70;;;1.60;;
14235;SDS011;7202;50.718;7.072;2022-07-01T02:49:55;4.60;;;1.60;;
14235;SDS011;7202;50.718;7.072;2022-07-01T02:52:23;2.55;;;2.05;;
14235;SDS011;7202;50.718;7.072;2022-07-01T02:54:52;1.70;;;1.50;;
14235;SDS011;7202;50.718;7.072;2022-07-01T02:57:21;4.88;;;1.65;;
14235;SDS011;7202;50.718;7.072;2022-07-01T02:59:50;3.20;;;1.60;;
14235;SDS011;7202;50.718;7.072;2022-07-01T03:02:19;4.03;;;1.88;;
14235;SDS011;7202;50.718;7.072;2022-07-01T03:04:50;2.30;;;1.48;;
14235;SDS011;7202;50.718;7.072;2022-07-01T03:07:20;1.85;;;1.65;;
14235;SDS011;7202;50.718;7.072;2022-07-01T03:09:49;2.70;;;1.73;;
14235;SDS011;7202;50.718;7.072;2022-07-01T03:12:18;4.25;;;1.80;;
14235;SDS011;7202;50.718;7.072;2022-07-01T03:14:52;5.63;;;1.80;;
14235;SDS011;7202;50.718;7.072;2022-07-01T03:17:21;3.70;;;1.75;;
14235;SDS011;7202;50.718;7.072;2022-07-01T03:19:52;3.47;;;1.90;;
14235;SDS011;7202;50.718;7.072;2022-07-01T03:22:22;2.03;;;1.60;;
14235;SDS011;7202;50.718;7.072;2022-07-01T03:24:51;3.15;;;2.10;;
14235;SDS011;7202;50.718;7.072;2022-07-01T03:27:21;2.10;;;1.90;;
14235;SDS011;7202;50.718;7.072;2022-07-01T03:29:50;2.22;;;1.77;;
14235;SDS011;7202;50.718;7.072;2022-07-01T03:32:19;3.53;;;1.70;;
14235;SDS011;7202;50.718;7.072;2022-07-01T03:34:48;3.03;;;1.75;;
14235;SDS011;7202;50.718;7.072;2022-07-01T03:37:19;2.00;;;1.80;;
14235;SDS011;7202;50.718;7.072;2022-07-01T03:39:49;2.28;;;1.77;;
14235;SDS011;7202;50.718;7.072;2022-07-01T03:42:18;2.40;;;1.70;;
14235;SDS011;7202;50.718;7.072;2022-07-01T03:44:47;3.92;;;1.98;;
14235;SDS011;7202;50.718;7.072;2022-07-01T03:47:16;4.00;;;1.80;;
14235;SDS011;7202;50.718;7.072;2022-07-01T03:49:44;2.58;;;1.85;;
14235;SDS011;7202;50.718;7.072;2022-07-01T03:52:13;3.88;;;1.92;;
14235;SDS011;7202;50.718;7.072;2022-07-01T03:54:43;4.53;;;2.30;;
14235;SDS011;7202;50.718;7.072;2022-07-01T03:57:10;3.05;;;1.95;;
14235;SDS011;7202;50.718;7.072;2022-07-01T03:59:39;2.10;;;1.90;;
14235;SDS011;7202;50.718;7.072;2022-07-01T04:02:08;4.05;;;1.67;;
14235;SDS011;7202;50.718;7.072;2022-07-01T04:04:37;2.00;;;1.58;;
14235;SDS011;7202;50.718;7.072;2022-07-01T04:07:06;2.03;;;1.83;;
14235;SDS011;7202;50.718;7.072;2022-07-01T04:09:36;2.83;;;1.60;;
14235;SDS011;7202;50.718;7.072;2022-07-01T04:12:06;2.45;;;1.85;;
14235;SDS011;7202;50.718;7.072;2022-07-01T04:14:39;2.25;;;1.90;;
14235;SDS011;7202;50.718;7.072;2022-07-01T04:17:08;2.92;;;1.90;;
14235;SDS011;7202;50.718;7.072;2022-07-01T04:19:37;3.55;;;1.92;;
14235;SDS011;7202;50.718;7.072;2022-07-01T04:22:05;2.60;;;1.80;;
14235;SDS011;7202;50.718;7.072;2022-07-01T04:24:51;3.42;;;1.73;;
14235;SDS011;7202;50.718;7.072;2022-07-01T04:27:21;3.15;;;1.80;;
14235;SDS011;7202;50.718;7.072;2022-07-01T04:29:50;2.00;;;1.80;;
14235;SDS011;7202;50.718;7.072;2022-07-01T04:32:18;2.10;;;1.80;;
14235;SDS011;7202;50.718;7.072;2022-07-01T04:34:47;1.85;;;1.60;;
14235;SDS011;7202;50.718;7.072;2022-07-01T04:37:16;2.05;;;1.85;;
14235;SDS011;7202;50.718;7.072;2022-07-01T04:39:44;5.88;;;2.00;;
14235;SDS011;7202;50.718;7.072;2022-07-01T04:42:13;2.83;;;1.90;;
14235;SDS011;7202;50.718;7.072;2022-07-01T04:44:43;3.40;;;1.80;;
14235;SDS011;7202;50.718;7.072;2022-07-01T04:47:13;4.22;;;1.90;;
14235;SDS011;7202;50.718;7.072;2022-07-01T04:49:41;2.42;;;1.92;;
14235;SDS011;7202;50.718;7.072;2022-07-01T04:52:10;4.57;;;2.83;;
14235;SDS011;7202;50.718;7.072;2022-07-01T04:54:39;2.30;;;1.60;;
14235;SDS011;7202;50.718;7.072;2022-07-01T04:57:08;5.65;;;1.70;;
14235;SDS011;7202;50.718;7.072;2022-07-01T04:59:37;2.25;;;1.70;;
14235;SDS011;7202;50.718;7.072;2022-07-01T05:02:07;3.10;;;1.60;;
14235;SDS011;7202;50.718;7.072;2022-07-01T05:04:38;2.70;;;1.73;;
14235;SDS011;7202;50.718;7.072;2022-07-01T05:07:08;3.88;;;1.80;;
14235;SDS011;7202;50.718;7.072;2022-07-01T05:09:55;4.55;;;2.00;;
14235;SDS011;7202;50.718;7.072;2022-07-01T05:12:25;2.72;;;1.65;;
14235;SDS011;7202;50.718;7.072;2022-07-01T05:14:54;3.90;;;1.98;;
14235;SDS011;7202;50.718;7.072;2022-07-01T05:17:24;4.00;;;1.58;;
14235;SDS011;7202;50.718;7.072;2022-07-01T05:20:12;4.05;;;1.65;;
14235;SDS011;7202;50.718;7.072;2022-07-01T05:22:58;2.95;;;2.10;;
14235;SDS011;7202;50.718;7.072;2022-07-01T05:25:27;3.78;;;1.75;;
14235;SDS011;7202;50.718;7.072;2022-07-01T05:27:55;5.25;;;1.90;;
14235;SDS011;7202;50.718;7.072;2022-07-01T05:30:24;4.70;;;2.30;;
14235;SDS011;7202;50.718;7.072;2022-07-01T05:32:54;4.35;;;2.15;;
14235;SDS011;7202;50.718;7.072;2022-07-01T05:35:22;5.50;;;2.20;;
14235;SDS011;7202;50.718;7.072;2022-07-01T05:37:51;4.50;;;1.98;;
14235;SDS011;7202;50.718;7.072;2022-07-01T05:40:20;2.25;;;1.70;;
14235;SDS011;7202;50.718;7.072;2022-07-01T05:42:48;3.28;;;2.05;;
14235;SDS011;7202;50.718;7.072;2022-07-01T05:45:17;3.92;;;2.10;;
14235;SDS011;7202;50.718;7.072;2022-07-01T05:47:45;3.30;;;1.58;;
14235;SDS011;7202;50.718;7.072;2022-07-01T05:50:15;2.88;;;1.48;;
14235;SDS011;7202;50.718;7.072;2022-07-01T05:52:44;1.90;;;1.70;;
14235;SDS011;7202;50.718;7.072;2022-07-01T05:55:13;5.28;;;1.95;;
14235;SDS011;7202;50.718;7.072;2022-07-01T05:57:41;5.60;;;2.10;;
14235;SDS011;7202;50.718;7.072;2022-07-01T06:00:10;6.32;;;2.00;;
14235;SDS011;7202;50.718;7.072;2022-07-01T06:02:40;3.88;;;1.52;;
14235;SDS011;7202;50.718;7.072;2022-07-01T06:05:08;2.72;;;1.90;;
14235;SDS011;7202;50.718;7.072;2022-07-01T06:07:41;3.03;;;2.10;;
14235;SDS011;7202;50.718;7.072;2022-07-01T06:10:10;5.10;;;1.65;;
14235;SDS011;7202;50.718;7.072;2022-07-01T06:12:39;3.50;;;1.70;;
14235;SDS011;7202;50.718;7.072;2022-07-01T06:15:08;6.80;;;2.03;;
14235;SDS011;7202;50.718;7.072;2022-07-01T06:17:39;3.42;;;1.85;;
14235;SDS011;7202;50.718;7.072;2022-07-01T06:20:09;4.78;;;2.03;;
14235;SDS011;7202;50.718;7.072;2022-07-01T06:22:37;2.92;;;1.80;;
14235;SDS011;7202;50.718;7.072;2022-07-01T06:25:08;3.78;;;2.00;;
14235;SDS011;7202;50.718;7.072;2022-07-01T06:27:37;3.22;;;2.05;;
14235;SDS011;7202;50.718;7.072;2022-07-01T06:30:07;6.43;;;1.85;;
14235;SDS011;7202;50.718;7.072;2022-07-01T06:32:36;2.30;;;1.88;;
14235;SDS011;7202;50.718;7.072;2022-07-01T06:35:06;3.55;;;2.05;;
14235;SDS011;7202;50.718;7.072;2022-07-01T06:37:35;2.28;;;1.70;;
14235;SDS011;7202;50.718;7.072;2022-07-01T06:40:08;8.98;;;2.25;;
14235;SDS011;7202;50.718;7.072;2022-07-01T06:42:37;5.60;;;2.08;;
14235;SDS011;7202;50.718;7.072;2022-07-01T06:45:06;4.50;;;1.80;;
14235;SDS011;7202;50.718;7.072;2022-07-01T06:47:35;3.40;;;1.98;;
14235;SDS011;7202;50.718;7.072;2022-07-01T06:50:04;3.95;;;1.92;;
14235;SDS011;7202;50.718;7.072;2022-07-01T06:52:33;3.92;;;2.25;;
14235;SDS011;7202;50.718;7.072;2022-07-01T06:55:02;2.22;;;1.80;;
14235;SDS011;7202;50.718;7.072;2022-07-01T06:57:32;4.90;;;2.50;;
14235;SDS011;7202;50.718;7.072;2022-07-01T07:00:01;2.67;;;1.92;;
14235;SDS011;7202;50.718;7.072;2022-07-01T07:02:30;5.55;;;2.00;;
14235;SDS011;7202;50.718;7.072;2022-07-01T07:04:59;5.78;;;1.95;;
14235;SDS011;7202;50.718;7.072;2022-07-01T07:07:28;4.30;;;2.00;;
14235;SDS011;7202;50.718;7.072;2022-07-01T07:09:57;2.80;;;2.03;;
14235;SDS011;7202;50.718;7.072;2022-07-01T07:12:26;5.72;;;2.05;;
14235;SDS011;7202;50.718;7.072;2022-07-01T07:14:56;3.72;;;1.88;;
14235;SDS011;7202;50.718;7.072;2022-07-01T07:17:24;5.63;;;1.77;;
14235;SDS011;7202;50.718;7.072;2022-07-01T07:19:53;2.15;;;1.58;;
14235;SDS011;7202;50.718;7.072;2022-07-01T07:22:22;2.17;;;1.70;;
14235;SDS011;7202;50.718;7.072;2022-07-01T07:24:51;4.85;;;1.83;;
14235;SDS011;7202;50.718;7.072;2022-07-01T07:27:20;4.43;;;1.63;;
14235;SDS011;7202;50.718;7.072;2022-07-01T07:29:49;3.08;;;1.92;;
14235;SDS011;7202;50.718;7.072;2022-07-01T07:32:19;3.20;;;1.80;;
14235;SDS011;7202;50.718;7.072;2022-07-01T07:34:47;1.70;;;1.60;;
14235;SDS011;7202;50.718;7.072;2022-07-01T07:37:16;2.95;;;1.70;;
14235;SDS011;7202;50.718;7.072;2022-07-01T07:39:45;3.05;;;1.80;;
14235;SDS011;7202;50.718;7.072;2022-07-01T07:42:13;2.55;;;1.50;;
14235;SDS011;7202;50.718;7.072;2022-07-01T07:44:42;3.72;;;1.70;;
14235;SDS011;7202;50.718;7.072;2022-07-01T07:47:10;3.05;;;1.63;;
14235;SDS011;7202;50.718;7.072;2022-07-01T07:49:40;2.78;;;1.92;;
14235;SDS011;7202;50.718;7.072;2022-07-01T07:52:09;4.93;;;2.17;;
14235;SDS011;7202;50.718;7.072;2022-07-01T07:54:38;2.50;;;1.77;;
14235;SDS011;7202;50.718;7.072;2022-07-01T07:57:08;4.65;;;1.77;;
14235;SDS011;7202;50.718;7.072;2022-07-01T07:59:36;2.70;;;1.63;;
14235;SDS011;7202;50.718;7.072;2022-07-01T08:02:05;2.92;;;1.77;;
14235;SDS011;7202;50.718;7.072;2022-07-01T08:04:34;3.63;;;1.52;;
14235;SDS011;7202;50.718;7.072;2022-07-01T08:07:05;4.45;;;1.42;;
14235;SDS011;7202;50.718;7.072;2022-07-01T08:09:34;3.95;;;1.30;;
14235;SDS011;7202;50.718;7.072;2022-07-01T08:12:03;6.05;;;1.55;;
14235;SDS011;7202;50.718;7.072;2022-07-01T08:14:32;3.55;;;1.50;;
14235;SDS011;7202;50.718;7.072;2022-07-01T08:17:01;2.75;;;1.92;;
14235;SDS011;7202;50.718;7.072;2022-07-01T08:19:30;2.33;;;1.60;;
14235;SDS011;7202;50.718;7.072;2022-07-01T08:21:59;2.17;;;1.27;;
14235;SDS011;7202;50.718;7.072;2022-07-01T08:24:29;3.67;;;1.40;;
14235;SDS011;7202;50.718;7.072;2022-07-01T08:26:57;2.20;;;1.50;;
14235;SDS011;7202;50.718;7.072;2022-07-01T08:29:26;1.80;;;1.50;;
14235;SDS011;7202;50.718;7.072;2022-07-01T08:31:55;4.18;;;1.60;;
14235;SDS011;7202;50.718;7.072;2022-07-01T08:34:23;5.38;;;1.58;;
14235;SDS011;7202;50.718;7.072;2022-07-01T08:36:52;2.63;;;1.50;;
14235;SDS011;7202;50.718;7.072;2022-07-01T08:39:20;1.63;;;1.02;;
14235;SDS011;7202;50.718;7.072;2022-07-01T08:41:50;3.08;;;1.10;;
14235;SDS011;7202;50.718;7.072;2022-07-01T08:44:19;3.45;;;1.30;;
14235;SDS011;7202;50.718;7.072;2022-07-01T08:46:49;3.35;;;1.10;;
14235;SDS011;7202;50.718;7.072;2022-07-01T08:49:18;2.03;;;1.17;;
14235;SDS011;7202;50.718;7.072;2022-07-01T08:51:48;1.70;;;1.27;;
14235;SDS011;7202;50.718;7.072;2022-07-01T08:54:17;1.70;;;1.25;;
14235;SDS011;7202;50.718;7.072;2022-07-01T08:56:46;1.55;;;0.98;;
14235;SDS011;7202;50.718;7.072;2022-07-01T08:59:22;4.07;;;1.55;;
14235;SDS011;7202;50.718;7.072;2022-07-01T09:01:56;1.17;;;1.08;;
14235;SDS011;7202;50.718;7.072;2022-07-01T09:04:26;3.13;;;1.13;;
14235;SDS011;7202;50.718;7.072;2022-07-01T09:06:59;2.42;;;1.05;;
14235;SDS011;7202;50.718;7.072;2022-07-01T09:09:33;1.60;;;0.77;;
14235;SDS011;7202;50.718;7.072;2022-07-01T09:12:04;3.55;;;1.20;;
14235;SDS011;7202;50.718;7.072;2022-07-01T09:14:35;2.00;;;1.00;;
14235;SDS011;7202;50.718;7.072;2022-07-01T09:17:05;1.45;;;1.08;;
14235;SDS011;7202;50.718;7.072;2022-07-01T09:19:35;1.90;;;0.93;;
14235;SDS011;7202;50.718;7.072;2022-07-01T09:22:12;1.30;;;1.00;;
14235;SDS011;7202;50.718;7.072;2022-07-01T09:24:41;1.88;;;1.13;;
14235;SDS011;7202;50.718;7.072;2022-07-01T09:27:11;3.33;;;1.15;;
14235;SDS011;7202;50.718;7.072;2022-07-01T09:29:43;1.88;;;0.90;;
14235;SDS011;7202;50.718;7.072;2022-07-01T09:32:13;4.50;;;1.08;;
14235;SDS011;7202;50.718;7.072;2022-07-01T09:34:45;2.67;;;0.90;;
14235;SDS011;7202;50.718;7.072;2022-07-01T09:37:16;2.35;;;1.17;;
14235;SDS011;7202;50.718;7.072;2022-07-01T09:39:46;2.15;;;1.05;;
14235;SDS011;7202;50.718;7.072;2022-07-01T09:42:16;1.67;;;0.90;;
14235;SDS011;7202;50.718;7.072;2022-07-01T09:44:54;2.13;;;1.13;;
14235;SDS011;7202;50.718;7.072;2022-07-01T09:47:29;1.77;;;0.93;;
14235;SDS011;7202;50.718;7.072;2022-07-01T09:49:59;1.52;;;0.90;;
14235;SDS011;7202;50.718;7.072;2022-07-01T09:52:28;1.92;;;1.05;;
14235;SDS011;7202;50.718;7.072;2022-07-01T09:55:03;1.23;;;1.00;;
14235;SDS011;7202;50.718;7.072;2022-07-01T09:57:33;3.17;;;0.85;;
14235;SDS011;7202;50.718;7.072;2022-07-01T10:00:04;2.50;;;1.00;;
14235;SDS011;7202;50.718;7.072;2022-07-01T10:02:34;1.23;;;1.00;;
14235;SDS011;7202;50.718;7.072;2022-07-01T10:05:05;2.45;;;0.90;;
14235;SDS011;7202;50.718;7.072;2022-07-01T10:07:39;1.73;;;0.98;;
14235;SDS011;7202;50.718;7.072;2022-07-01T10:10:25;2.05;;;1.00;;
14235;SDS011;7202;50.718;7.072;2022-07-01T10:13:06;1.33;;;0.98;;
14235;SDS011;7202;50.718;7.072;2022-07-01T10:15:40;1.20;;;0.80;;
14235;SDS011;7202;50.718;7.072;2022-07-01T10:18:18;0.93;;;0.80;;
14235;SDS011;7202;50.718;7.072;2022-07-01T10:20:48;1.45;;;0.85;;
14235;SDS011;7202;50.718;7.072;2022-07-01T10:23:19;0.60;;;0.60;;
14235;SDS011;7202;50.718;7.072;2022-07-01T10:25:49;1.70;;;0.98;;
14235;SDS011;7202;50.718;7.072;2022-07-01T10:28:22;0.90;;;0.80;;
14235;SDS011;7202;50.718;7.072;2022-07-01T10:30:55;1.20;;;1.05;;
14235;SDS011;7202;50.718;7.072;2022-07-01T10:33:30;1.30;;;1.20;;
14235;SDS011;7202;50.718;7.072;2022-07-01T10:36:06;1.75;;;0.73;;
14235;SDS011;7202;50.718;7.072;2022-07-01T10:39:07;1.05;;;0.70;;
14235;SDS011;7202;50.718;7.072;2022-07-01T10:41:59;1.27;;;0.77;;
14235;SDS011;7202;50.718;7.072;2022-07-01T10:45:02;1.17;;;0.98;;
14235;SDS011;7202;50.718;7.072;2022-07-01T10:47:33;1.55;;;0.90;;
14235;SDS011;7202;50.718;7.072;2022-07-01T10:50:03;2.63;;;1.23;;
14235;SDS011;7202;50.718;7.072;2022-07-01T10:52:36;1.52;;;0.80;;
14235;SDS011;7202;50.718;7.072;2022-07-01T10:55:06;2.35;;;0.73;;
14235;SDS011;7202;50.718;7.072;2022-07-01T10:57:39;3.10;;;0.95;;
14235;SDS011;7202;50.718;7.072;2022-07-01T11:00:25;1.67;;;0.90;;
14235;SDS011;7202;50.718;7.072;2022-07-01T11:05:52;1.45;;;0.80;;
14235;SDS011;7202;50.718;7.072;2022-07-01T11:08:22;1.65;;;0.70;;
14235;SDS011;7202;50.718;7.072;2022-07-01T11:10:58;3.25;;;0.80;;
14235;SDS011;7202;50.718;7.072;2022-07-01T11:13:31;0.90;;;0.60;;
14235;SDS011;7202;50.718;7.072;2022-07-01T11:16:00;0.85;;;0.70;;
14235;SDS011;7202;50.718;7.072;2022-07-01T11:18:31;1.13;;;0.70;;
14235;SDS011;7202;50.718;7.072;2022-07-01T11:21:03;3.05;;;0.70;;
14235;SDS011;7202;50.718;7.072;2022-07-01T11:23:33;0.75;;;0.68;;
14235;SDS011;7202;50.718;7.072;2022-07-01T11:26:18;0.40;;;0.40;;
14235;SDS011;7202;50.718;7.072;2022-07-01T11:28:48;0.90;;;0.60;;
14235;SDS011;7202;50.718;7.072;2022-07-01T11:31:26;2.10;;;1.10;;
14235;SDS011;7202;50.718;7.072;2022-07-01T11:34:00;1.63;;;0.80;;
14235;SDS011;7202;50.718;7.072;2022-07-01T11:36:29;1.85;;;0.80;;
14235;SDS011;7202;50.718;7.072;2022-07-01T11:39:16;1.48;;;0.63;;
14235;SDS011;7202;50.718;7.072;2022-07-01T11:41:52;3.22;;;0.93;;
14235;SDS011;7202;50.718;7.072;2022-07-01T11:44:28;3.88;;;0.73;;
14235;SDS011;7202;50.718;7.072;2022-07-01T11:46:57;1.63;;;1.00;;
14235;SDS011;7202;50.718;7.072;2022-07-01T11:49:28;2.25;;;0.82;;
14235;SDS011;7202;50.718;7.072;2022-07-01T11:51:57;2.78;;;1.00;;
14235;SDS011;7202;50.718;7.072;2022-07-01T11:54:26;0.65;;;0.63;;
14235;SDS011;7202;50.718;7.072;2022-07-01T11:57:06;1.48;;;0.80;;
14235;SDS011;7202;50.718;7.072;2022-07-01T11:59:36;2.17;;;0.77;;
14235;SDS011;7202;50.718;7.072;2022-07-01T12:02:07;3.55;;;1.00;;
14235;SDS011;7202;50.718;7.072;2022-07-01T12:04:39;1.17;;;0.93;;
14235;SDS011;7202;50.718;7.072;2022-07-01T12:07:09;2.45;;;0.82;;
14235;SDS011;7202;50.718;7.072;2022-07-01T12:09:39;0.75;;;0.70;;
14235;SDS011;7202;50.718;7.072;2022-07-01T12:12:14;1.95;;;0.70;;
14235;SDS011;7202;50.718;7.072;2022-07-01T12:14:49;1.02;;;0.82;;
14235;SDS011;7202;50.718;7.072;2022-07-01T12:17:19;1.00;;;0.80;;
14235;SDS011;7202;50.718;7.072;2022-07-01T12:19:49;2.85;;;1.23;;
14235;SDS011;7202;50.718;7.072;2022-07-01T12:22:21;1.13;;;0.80;;
14235;SDS011;7202;50.718;7.072;2022-07-01T12:24:52;3.10;;;1.02;;
14235;SDS011;7202;50.718;7.072;2022-07-01T12:27:32;5.68;;;1.27;;
14235;SDS011;7202;50.718;7.072;2022-07-01T12:30:02;4.35;;;1.20;;
14235;SDS011;7202;50.718;7.072;2022-07-01T12:32:32;2.35;;;0.93;;
14235;SDS011;7202;50.718;7.072;2022-07-01T12:35:05;3.55;;;0.90;;
14235;SDS011;7202;50.718;7.072;2022-07-01T12:37:56;5.40;;;1.00;;
14235;SDS011;7202;50.718;7.072;2022-07-01T12:40:25;1.08;;;0.75;;
14235;SDS011;7202;50.718;7.072;2022-07-01T12:42:55;1.23;;;0.70;;
14235;SDS011;7202;50.718;7.072;2022-07-01T12:45:26;0.90;;;0.50;;
14235;SDS011;7202;50.718;7.072;2022-07-01T12:47:55;1.05;;;0.75;;
14235;SDS011;7202;50.718;7.072;2022-07-01T12:50:28;1.80;;;0.90;;
14235;SDS011;7202;50.718;7.072;2022-07-01T12:52:59;1.67;;;0.80;;
14235;SDS011;7202;50.718;7.072;2022-07-01T12:55:30;1.33;;;0.90;;
14235;SDS011;7202;50.718;7.072;2022-07-01T12:58:00;0.93;;;0.60;;
14235;SDS011;7202;50.718;7.072;2022-07-01T13:00:30;1.50;;;0.65;;
14235;SDS011;7202;50.718;7.072;2022-07-01T13:03:00;1.17;;;0.80;;
14235;SDS011;7202;50.718;7.072;2022-07-01T13:05:32;1.10;;;0.77;;
14235;SDS011;7202;50.718;7.072;2022-07-01T13:08:02;2.08;;;0.90;;
14235;SDS011;7202;50.718;7.072;2022-07-01T13:10:31;1.70;;;1.08;;
14235;SDS011;7202;50.718;7.072;2022-07-01T13:13:00;1.00;;;0.70;;
14235;SDS011;7202;50.718;7.072;2022-07-01T13:15:29;2.08;;;0.70;;
14235;SDS011;7202;50.718;7.072;2022-07-01T13:17:58;1.10;;;0.80;;
14235;SDS011;7202;50.718;7.072;2022-07-01T13:20:27;1.70;;;0.93;;
14235;SDS011;7202;50.718;7.072;2022-07-01T13:22:57;0.85;;;0.70;;
14235;SDS011;7202;50.718;7.072;2022-07-01T13:25:26;1.40;;;0.93;;
14235;SDS011;7202;50.718;7.072;2022-07-01T13:27:54;0.80;;;0.68;;
14235;SDS011;7202;50.718;7.072;2022-07-01T13:30:23;0.73;;;0.70;;
14235;SDS011;7202;50.718;7.072;2022-07-01T13:32:52;2.25;;;0.73;;
14235;SDS011;7202;50.718;7.072;2022-07-01T13:35:21;1.58;;;0.80;;
14235;SDS011;7202;50.718;7.072;2022-07-01T13:37:51;1.45;;;0.93;;
14235;SDS011;7202;50.718;7.072;2022-07-01T13:40:21;1.92;;;0.88;;
14235;SDS011;7202;50.718;7.072;2022-07-01T13:42:50;2.22;;;1.02;;
14235;SDS011;7202;50.718;7.072;2022-07-01T13:45:18;4.60;;;0.90;;
14235;SDS011;7202;50.718;7.072;2022-07-01T13:47:47;2.88;;;1.02;;
14235;SDS011;7202;50.718;7.072;2022-07-01T13:50:16;2.67;;;0.70;;
14235;SDS011;7202;50.718;7.072;2022-07-01T13:52:46;0.93;;;0.73;;
14235;SDS011;7202;50.718;7.072;2022-07-01T13:55:16;1.30;;;0.70;;
14235;SDS011;7202;50.718;7.072;2022-07-01T13:57:46;1.35;;;0.80;;
14235;SDS011;7202;50.718;7.072;2022-07-01T14:00:15;1.25;;;0.70;;
14235;SDS011;7202;50.718;7.072;2022-07-01T14:02:45;0.70;;;0.70;;
14235;SDS011;7202;50.718;7.072;2022-07-01T14:05:14;0.73;;;0.60;;
14235;SDS011;7202;50.718;7.072;2022-07-01T14:07:43;1.17;;;0.82;;
14235;SDS011;7202;50.718;7.072;2022-07-01T14:10:12;1.63;;;0.80;;
14235;SDS011;7202;50.718;7.072;2022-07-01T14:12:40;1.00;;;0.77;;
14235;SDS011;7202;50.718;7.072;2022-07-01T14:15:11;0.98;;;0.60;;
14235;SDS011;7202;50.718;7.072;2022-07-01T14:17:39;1.30;;;0.73;;
14235;SDS011;7202;50.718;7.072;2022-07-01T14:20:09;0.60;;;0.60;;
14235;SDS011;7202;50.718;7.072;2022-07-01T14:22:38;1.42;;;0.80;;
14235;SDS011;7202;50.718;7.072;2022-07-01T14:25:07;1.30;;;0.70;;
14235;SDS011;7202;50.718;7.072;2022-07-01T14:27:36;3.80;;;0.82;;
14235;SDS011;7202;50.718;7.072;2022-07-01T14:30:05;5.22;;;1.15;;
14235;SDS011;7202;50.718;7.072;2022-07-01T14:32:36;1.10;;;0.80;;
14235;SDS011;7202;50.718;7.072;2022-07-01T14:35:05;1.23;;;0.80;;
14235;SDS011;7202;50.718;7.072;2022-07-01T14:37:35;1.58;;;0.80;;
14235;SDS011;7202;50.718;7.072;2022-07-01T14:40:06;2.15;;;0.65;;
14235;SDS011;7202;50.718;7.072;2022-07-01T14:42:35;0.75;;;0.68;;
14235;SDS011;7202;50.718;7.072;2022-07-01T14:45:05;0.68;;;0.68;;
14235;SDS011;7202;50.718;7.072;2022-07-01T14:47:34;3.05;;;0.52;;
14235;SDS011;7202;50.718;7.072;2022-07-01T14:50:05;0.75;;;0.50;;
14235;SDS011;7202;50.718;7.072;2022-07-01T14:52:34;2.28;;;0.70;;
14235;SDS011;7202;50.718;7.072;2022-07-01T14:55:03;1.30;;;0.60;;
14235;SDS011;7202;50.718;7.072;2022-07-01T14:57:33;0.77;;;0.50;;
14235;SDS011;7202;50.718;7.072;2022-07-01T15:00:02;0.80;;;0.60;;
14235;SDS011;7202;50.718;7.072;2022-07-01T15:02:32;2.30;;;0.50;;
14235;SDS011;7202;50.718;7.072;2022-07-01T15:05:02;1.20;;;0.52;;
14235;SDS011;7202;50.718;7.072;2022-07-01T15:07:31;1.58;;;0.50;;
14235;SDS011;7202;50.718;7.072;2022-07-01T15:10:00;2.75;;;0.60;;
14235;SDS011;7202;50.718;7.072;2022-07-01T15:12:29;0.50;;;0.50;;
14235;SDS011;7202;50.718;7.072;2022-07-01T15:14:58;0.95;;;0.63;;
14235;SDS011;7202;50.718;7.072;2022-07-01T15:17:26;2.35;;;0.68;;
14235;SDS011;7202;50.718;7.072;2022-07-01T15:19:55;0.77;;;0.57;;
14235;SDS011;7202;50.718;7.072;2022-07-01T15:22:25;1.08;;;0.50;;